createdAt,value
2023-01-09T00:00:47.021Z,7.60
2023-01-09T00:03:13.903Z,7.60
2023-01-09T00:05:40.743Z,7.60
2023-01-09T00:08:07.692Z,7.50
2023-01-09T00:10:34.525Z,7.50
2023-01-09T00:13:01.365Z,7.40
2023-01-09T00:15:28.175Z,9.70
2023-01-09T00:17:54.965Z,7.50
2023-01-09T00:20:21.763Z,7.50
2023-01-09T00:22:48.558Z,10.50
2023-01-09T00:25:15.453Z,9.50
2023-01-09T00:27:42.287Z,7.60
2023-01-09T00:30:10.121Z,7.70
2023-01-09T00:32:36.921Z,7.80
2023-01-09T00:35:03.932Z,7.80
2023-01-09T00:37:30.693Z,7.80
2023-01-09T00:39:57.473Z,10.00
2023-01-09T00:42:26.406Z,7.90
2023-01-09T00:44:55.839Z,7.90
2023-01-09T00:47:25.406Z,9.20
2023-01-09T00:49:52.245Z,10.90
2023-01-09T00:52:19.046Z,10.40
2023-01-09T00:54:45.851Z,8.60
2023-01-09T00:57:13.404Z,9.50
2023-01-09T00:59:41.120Z,10.10
2023-01-09T01:02:08.161Z,7.70
2023-01-09T01:04:53.552Z,9.00
2023-01-09T01:07:38.372Z,7.60
2023-01-09T01:10:20.469Z,7.60
2023-01-09T01:12:47.748Z,7.50
2023-01-09T01:15:15.864Z,7.40
2023-01-09T01:17:42.853Z,9.70
2023-01-09T01:20:21.870Z,7.20
2023-01-09T01:22:48.707Z,7.20
2023-01-09T01:25:17.010Z,7.10
2023-01-09T01:27:44.486Z,7.10
2023-01-09T01:30:13.317Z,9.40
2023-01-09T01:32:40.115Z,7.00
2023-01-09T01:35:07.701Z,7.00
2023-01-09T01:37:35.305Z,6.90
2023-01-09T01:40:02.355Z,6.90
2023-01-09T01:42:29.144Z,7.70
2023-01-09T01:45:00.227Z,6.90
2023-01-09T01:47:52.554Z,9.90
2023-01-09T01:50:27.531Z,7.50
2023-01-09T01:53:15.333Z,6.90
2023-01-09T01:55:46.237Z,6.80
2023-01-09T01:58:14.352Z,6.80
2023-01-09T02:00:43.958Z,8.90
2023-01-09T02:03:10.949Z,6.80
2023-01-09T02:05:38.343Z,8.10
2023-01-09T02:08:06.073Z,9.10
2023-01-09T02:10:32.837Z,6.80
2023-01-09T02:12:59.679Z,9.20
2023-01-09T02:15:26.518Z,6.80
2023-01-09T02:18:28.123Z,9.80
2023-01-09T02:20:59.324Z,8.00
2023-01-09T02:23:28.898Z,8.00
2023-01-09T02:26:29.098Z,6.80
2023-01-09T02:29:31.725Z,6.80
2023-01-09T02:32:19.607Z,6.80
2023-01-09T02:35:13.948Z,6.80
2023-01-09T02:38:06.126Z,6.70
2023-01-09T02:40:53.160Z,6.70
2023-01-09T02:43:19.961Z,6.70
2023-01-09T02:45:46.817Z,6.70
2023-01-09T02:48:13.656Z,6.70
2023-01-09T02:50:55.239Z,6.70
2023-01-09T02:53:53.122Z,7.50
2023-01-09T02:56:52.241Z,6.60
2023-01-09T02:59:54.685Z,6.60
2023-01-09T03:02:35.444Z,10.10
2023-01-09T03:05:07.476Z,7.40
2023-01-09T03:07:54.390Z,6.60
2023-01-09T03:10:32.915Z,6.60
2023-01-09T03:12:59.954Z,6.60
2023-01-09T03:15:29.099Z,8.30
2023-01-09T03:17:55.910Z,6.60
2023-01-09T03:20:23.706Z,6.60
2023-01-09T03:22:57.840Z,6.70
2023-01-09T03:25:24.974Z,6.70
2023-01-09T03:27:56.738Z,8.10
2023-01-09T03:30:23.541Z,6.60
2023-01-09T03:32:50.332Z,6.60
2023-01-09T03:35:17.140Z,6.60
2023-01-09T03:37:43.967Z,6.60
2023-01-09T03:40:11.268Z,9.10
2023-01-09T03:42:38.051Z,6.50
2023-01-09T03:45:05.445Z,9.50
2023-01-09T03:47:32.245Z,6.50
2023-01-09T03:49:59.061Z,8.60
2023-01-09T03:52:25.835Z,6.40
2023-01-09T03:54:52.623Z,6.40
2023-01-09T03:57:19.405Z,8.10
2023-01-09T03:59:46.247Z,6.30
2023-01-09T04:02:13.150Z,6.30
2023-01-09T04:04:40.107Z,6.30
2023-01-09T04:07:06.877Z,6.20
2023-01-09T04:09:33.675Z,6.00
2023-01-09T04:12:00.445Z,6.20
2023-01-09T04:14:27.262Z,6.20
2023-01-09T04:16:54.055Z,6.10
2023-01-09T04:19:20.904Z,8.40
2023-01-09T04:21:47.700Z,6.10
2023-01-09T04:24:14.466Z,8.90
2023-01-09T04:26:41.316Z,6.10
2023-01-09T04:29:08.152Z,9.00
2023-01-09T04:31:34.947Z,6.00
2023-01-09T04:34:01.770Z,6.00
2023-01-09T04:36:28.605Z,8.00
2023-01-09T04:38:55.464Z,5.90
2023-01-09T04:41:41.154Z,5.90
2023-01-09T04:44:07.928Z,6.50
2023-01-09T04:46:34.675Z,3.40
2023-01-09T04:49:01.517Z,5.80
2023-01-09T04:51:28.283Z,5.70
2023-01-09T04:53:55.094Z,5.70
2023-01-09T04:56:21.865Z,5.70
2023-01-09T04:58:48.650Z,5.70
2023-01-09T05:01:15.509Z,5.50
2023-01-09T05:03:42.357Z,5.60
2023-01-09T05:06:09.128Z,5.60
2023-01-09T05:08:35.920Z,5.60
2023-01-09T05:11:02.702Z,5.60
2023-01-09T05:13:29.491Z,5.60
2023-01-09T05:15:56.265Z,5.60
2023-01-09T05:18:23.052Z,5.60
2023-01-09T05:20:49.940Z,8.00
2023-01-09T05:23:16.749Z,7.70
2023-01-09T05:25:43.563Z,5.50
2023-01-09T05:28:10.328Z,6.70
2023-01-09T05:30:37.122Z,5.50
2023-01-09T05:33:04.014Z,5.50
2023-01-09T05:35:30.771Z,5.40
2023-01-09T05:37:57.591Z,5.40
2023-01-09T05:40:29.127Z,5.40
2023-01-09T05:42:59.000Z,5.10
2023-01-09T05:49:38.928Z,5.30
2023-01-09T05:52:05.714Z,6.70
2023-01-09T05:54:32.519Z,6.70
2023-01-09T05:56:59.296Z,7.10
2023-01-09T05:59:26.373Z,5.10
2023-01-09T06:01:54.399Z,6.70
2023-01-09T06:04:21.741Z,5.00
2023-01-09T06:06:48.545Z,4.90
2023-01-09T06:09:15.369Z,4.90
2023-01-09T06:11:42.151Z,7.00
2023-01-09T06:14:08.960Z,4.80
2023-01-09T06:16:35.738Z,4.70
2023-01-09T06:19:02.521Z,6.80
2023-01-09T06:21:29.632Z,6.00
2023-01-09T06:23:56.731Z,4.50
2023-01-09T06:26:24.113Z,4.30
2023-01-09T06:28:50.929Z,4.30
2023-01-09T06:31:17.842Z,4.40
2023-01-09T06:33:44.733Z,5.10
2023-01-09T06:36:11.532Z,4.40
2023-01-09T06:38:38.309Z,4.50
2023-01-09T06:41:05.268Z,4.50
2023-01-09T06:43:32.093Z,4.50
2023-01-09T06:45:58.921Z,4.50
2023-01-09T06:48:25.883Z,4.50
2023-01-09T06:50:53.159Z,4.50
2023-01-09T06:53:20.154Z,4.30
2023-01-09T06:55:46.942Z,4.60
2023-01-09T06:58:13.790Z,4.60
2023-01-09T07:00:40.573Z,4.60
2023-01-09T07:03:07.397Z,4.60
2023-01-09T07:05:38.122Z,4.60
2023-01-09T07:08:04.942Z,6.90
2023-01-09T07:10:31.727Z,4.60
2023-01-09T07:12:58.530Z,4.70
2023-01-09T07:15:25.352Z,4.70
2023-01-09T07:17:52.773Z,4.40
2023-01-09T07:20:19.771Z,6.10
2023-01-09T07:22:46.953Z,4.70
2023-01-09T07:25:13.724Z,4.70
2023-01-09T07:27:40.548Z,4.60
2023-01-09T07:30:08.158Z,4.70
2023-01-09T07:32:35.069Z,4.70
2023-01-09T07:35:01.957Z,4.70
2023-01-09T07:37:28.753Z,4.70
2023-01-09T07:39:55.574Z,4.80
2023-01-09T07:42:22.406Z,7.40
2023-01-09T07:44:49.197Z,4.80
2023-01-09T07:47:15.993Z,5.10
2023-01-09T07:49:42.889Z,4.80
2023-01-09T07:52:09.732Z,4.60
2023-01-09T07:54:36.725Z,4.80
2023-01-09T07:57:03.551Z,4.70
2023-01-09T07:59:30.336Z,5.10
2023-01-09T08:01:57.214Z,4.60
2023-01-09T08:04:24.107Z,4.60
2023-01-09T08:06:50.932Z,4.60
2023-01-09T08:09:18.369Z,5.80
2023-01-09T08:11:45.135Z,4.40
2023-01-09T08:14:12.008Z,4.60
2023-01-09T08:16:38.764Z,4.70
2023-01-09T08:19:05.688Z,4.70
2023-01-09T08:21:32.494Z,4.80
2023-01-09T08:23:59.277Z,4.80
2023-01-09T08:26:26.069Z,4.80
2023-01-09T08:28:52.880Z,7.60
2023-01-09T08:31:19.683Z,4.90
2023-01-09T08:33:46.503Z,6.70
2023-01-09T08:36:13.297Z,4.80
2023-01-09T08:38:40.081Z,4.70
2023-01-09T08:41:25.227Z,4.90
2023-01-09T08:44:10.971Z,4.90
2023-01-09T08:46:56.263Z,6.20
2023-01-09T08:49:23.121Z,5.00
2023-01-09T08:51:49.939Z,5.10
2023-01-09T08:54:16.714Z,5.10
2023-01-09T08:56:43.537Z,5.20
2023-01-09T08:59:11.276Z,5.00
2023-01-09T09:01:38.126Z,6.90
2023-01-09T09:04:05.493Z,5.30
2023-01-09T09:07:43.747Z,5.40
2023-01-09T09:10:10.999Z,5.50
2023-01-09T09:12:37.758Z,5.50
2023-01-09T09:15:13.584Z,8.30
2023-01-09T09:17:40.605Z,5.70
2023-01-09T09:20:08.739Z,8.20
2023-01-09T09:22:35.701Z,5.70
2023-01-09T09:25:04.592Z,5.80
2023-01-09T09:27:32.118Z,7.40
2023-01-09T09:29:59.024Z,9.30
2023-01-09T09:32:25.832Z,5.90
2023-01-09T09:34:52.652Z,6.00
2023-01-09T09:37:19.395Z,6.20
2023-01-09T09:39:46.158Z,9.10
2023-01-09T09:46:53.757Z,6.40
2023-01-09T09:49:33.218Z,6.50
2023-01-09T09:52:13.891Z,6.60
2023-01-09T09:54:42.700Z,6.50
2023-01-09T09:57:13.829Z,9.40
2023-01-09T09:59:40.656Z,6.70
2023-01-09T10:02:26.311Z,6.70
2023-01-09T10:05:10.366Z,6.70
2023-01-09T10:07:42.172Z,6.70
2023-01-09T10:10:38.233Z,6.60
2023-01-09T10:13:25.035Z,6.70
2023-01-09T10:16:11.804Z,6.70
2023-01-09T10:18:53.338Z,6.70
2023-01-09T10:21:23.926Z,6.70
2023-01-09T10:23:59.803Z,7.60
2023-01-09T10:26:34.188Z,6.70
2023-01-09T10:29:45.078Z,6.70
2023-01-09T10:32:17.749Z,6.70
2023-01-09T10:35:23.277Z,6.80
2023-01-09T10:37:53.225Z,6.80
2023-01-09T10:40:24.184Z,6.80
2023-01-09T10:42:53.217Z,6.80
2023-01-09T10:45:25.912Z,7.60
2023-01-09T10:47:57.296Z,6.70
2023-01-09T10:50:30.099Z,6.60
2023-01-09T10:52:56.991Z,9.20
2023-01-09T10:55:44.027Z,6.60
2023-01-09T10:58:15.920Z,6.50
2023-01-09T11:00:42.717Z,7.70
2023-01-09T11:03:13.649Z,9.30
2023-01-09T11:05:40.660Z,6.30
2023-01-09T11:08:12.773Z,6.20
2023-01-09T11:10:49.416Z,8.90
2023-01-09T11:13:30.123Z,6.10
2023-01-09T11:16:20.039Z,6.10
2023-01-09T11:18:53.589Z,6.10
2023-01-09T11:21:41.905Z,6.10
2023-01-09T11:24:26.444Z,6.20
2023-01-09T11:26:54.896Z,6.50
2023-01-09T11:29:24.543Z,6.20
2023-01-09T11:31:58.517Z,6.20
2023-01-09T11:34:26.882Z,6.30
2023-01-09T11:36:54.894Z,8.60
2023-01-09T11:39:26.281Z,7.60
2023-01-09T11:41:57.464Z,8.80
2023-01-09T11:44:24.613Z,6.40
2023-01-09T11:46:51.392Z,6.50
2023-01-09T11:49:22.546Z,6.50
2023-01-09T11:52:20.455Z,6.60
2023-01-09T11:55:04.975Z,6.70
2023-01-09T11:57:31.895Z,6.80
2023-01-09T12:00:04.259Z,6.90
2023-01-09T12:02:44.212Z,7.00
2023-01-09T12:05:38.419Z,7.00
2023-01-09T12:08:14.292Z,7.10
2023-01-09T12:11:02.806Z,7.00
2023-01-09T12:13:42.699Z,7.00
2023-01-09T12:16:43.492Z,7.00
2023-01-09T12:19:19.483Z,7.00
2023-01-09T12:22:07.994Z,7.00
2023-01-09T12:24:55.752Z,7.00
2023-01-09T12:27:35.832Z,7.00
2023-01-09T12:30:26.800Z,7.00
2023-01-09T12:33:16.733Z,7.10
2023-01-09T12:35:49.460Z,7.10
2023-01-09T12:38:38.537Z,10.30
2023-01-09T12:41:42.692Z,7.20
2023-01-09T12:44:24.302Z,7.10
2023-01-09T12:47:24.341Z,7.10
2023-01-09T12:50:54.747Z,7.10
2023-01-09T12:53:36.689Z,7.10
2023-01-09T12:56:18.174Z,7.00
2023-01-09T12:58:47.149Z,7.00
2023-01-09T13:01:20.178Z,7.00
2023-01-09T13:04:12.122Z,7.00
2023-01-09T13:06:42.571Z,7.00
2023-01-09T13:09:15.467Z,7.30
2023-01-09T13:11:47.216Z,8.60
2023-01-09T13:14:20.802Z,7.20
2023-01-09T13:16:49.535Z,7.20
2023-01-09T13:23:21.476Z,7.50
2023-01-09T13:33:54.703Z,7.50
2023-01-09T13:36:28.197Z,7.40
2023-01-09T13:38:56.554Z,7.40
2023-01-09T13:41:43.597Z,7.30
2023-01-09T13:44:25.374Z,8.10
2023-01-09T13:46:53.299Z,8.70
2023-01-09T13:49:42.385Z,7.20
2023-01-09T13:52:28.554Z,7.20
2023-01-09T13:54:55.372Z,7.20
2023-01-09T13:57:33.156Z,7.20
2023-01-09T14:00:19.896Z,7.20
2023-01-09T14:02:47.099Z,7.20
2023-01-09T14:05:26.162Z,9.20
2023-01-09T14:08:04.910Z,7.10
2023-01-09T14:10:35.656Z,7.00
2023-01-09T14:13:06.412Z,9.10
2023-01-09T14:15:35.070Z,6.60
2023-01-09T14:18:03.490Z,8.90
2023-01-09T14:20:46.825Z,6.30
2023-01-09T14:23:53.413Z,6.20
2023-01-09T14:26:22.431Z,6.00
2023-01-09T14:28:49.345Z,5.80
2023-01-09T14:31:29.306Z,5.70
2023-01-09T14:34:31.210Z,5.60
2023-01-09T14:36:59.628Z,5.50
2023-01-09T14:39:26.872Z,4.70
2023-01-09T14:42:05.596Z,6.70
2023-01-09T14:44:44.769Z,5.30
2023-01-09T14:47:19.929Z,7.30
2023-01-09T14:50:07.271Z,5.20
2023-01-09T14:52:47.878Z,5.10
2023-01-09T14:55:26.070Z,5.00
2023-01-09T14:57:55.077Z,5.00
2023-01-09T15:00:22.547Z,5.00
2023-01-09T15:02:50.364Z,4.20
2023-01-09T15:05:19.609Z,5.00
2023-01-09T15:07:54.773Z,5.00
2023-01-09T15:10:25.682Z,5.00
2023-01-09T15:12:53.608Z,5.00
2023-01-09T15:15:20.742Z,5.00
2023-01-09T15:17:56.357Z,5.10
2023-01-09T15:20:29.937Z,5.10
2023-01-09T15:22:57.409Z,5.10
2023-01-09T15:25:39.706Z,5.20
2023-01-09T15:28:27.908Z,5.20
2023-01-09T15:31:01.892Z,5.10
2023-01-09T15:33:28.699Z,5.20
2023-01-09T15:36:00.297Z,5.00
2023-01-09T15:38:27.428Z,5.20
2023-01-09T15:40:58.455Z,8.40
2023-01-09T15:43:26.829Z,5.20
2023-01-09T15:45:53.696Z,5.20
2023-01-09T15:48:29.345Z,5.40
2023-01-09T15:51:04.532Z,5.20
2023-01-09T15:53:31.454Z,5.20
2023-01-09T15:56:20.293Z,5.20
2023-01-09T15:58:48.335Z,5.20
2023-01-09T16:01:38.163Z,7.30
2023-01-09T16:04:18.217Z,5.10
2023-01-09T16:06:51.511Z,5.10
2023-01-09T16:09:28.648Z,5.10
2023-01-09T16:11:57.082Z,2.40
2023-01-09T16:14:38.245Z,5.10
2023-01-09T16:17:07.585Z,5.10
2023-01-09T16:19:51.262Z,4.90
2023-01-09T16:22:28.120Z,5.10
2023-01-09T16:25:02.917Z,5.00
2023-01-09T16:27:32.062Z,5.00
2023-01-09T16:30:04.001Z,5.50
2023-01-09T16:32:35.334Z,5.00
2023-01-09T16:35:14.673Z,5.00
2023-01-09T16:37:41.537Z,5.00
2023-01-09T16:40:14.411Z,5.00
2023-01-09T16:42:59.881Z,4.60
2023-01-09T16:45:27.762Z,5.00
2023-01-09T16:47:54.589Z,5.00
2023-01-09T16:50:21.642Z,5.00
2023-01-09T16:52:48.418Z,6.30
2023-01-09T16:55:15.288Z,5.00
2023-01-09T16:57:42.112Z,5.00
2023-01-09T17:00:18.868Z,5.00
2023-01-09T17:02:45.773Z,5.00
2023-01-09T17:05:12.817Z,5.00
2023-01-09T17:07:39.729Z,5.00
2023-01-09T17:10:07.179Z,7.40
2023-01-09T17:12:33.999Z,5.00
2023-01-09T17:15:02.550Z,5.00
2023-01-09T17:17:29.338Z,6.00
2023-01-09T17:19:56.143Z,5.00
2023-01-09T17:22:23.016Z,5.00
2023-01-09T17:25:09.096Z,5.00
2023-01-09T17:27:55.101Z,5.00
2023-01-09T17:30:22.224Z,5.90
2023-01-09T17:32:49.128Z,5.00
2023-01-09T17:35:16.168Z,5.00
2023-01-09T17:37:43.122Z,5.00
2023-01-09T17:40:20.418Z,6.70
2023-01-09T17:42:47.248Z,5.00
2023-01-09T17:45:14.226Z,4.90
2023-01-09T17:47:41.045Z,5.50
2023-01-09T17:50:10.353Z,6.90
2023-01-09T17:52:37.120Z,5.00
2023-01-09T17:55:05.332Z,6.30
2023-01-09T17:57:32.746Z,5.00
2023-01-09T17:59:59.595Z,5.00
2023-01-09T18:02:26.425Z,5.00
2023-01-09T18:04:53.251Z,5.00
2023-01-09T18:07:20.736Z,7.20
2023-01-09T18:09:47.595Z,4.90
2023-01-09T18:12:14.479Z,5.00
2023-01-09T18:14:42.157Z,4.90
2023-01-09T18:17:10.244Z,5.00
2023-01-09T18:19:37.104Z,6.60
2023-01-09T18:22:04.031Z,6.50
2023-01-09T18:24:30.873Z,4.80
2023-01-09T18:26:57.670Z,4.90
2023-01-09T18:29:24.549Z,4.90
2023-01-09T18:31:51.819Z,7.40
2023-01-09T18:34:18.588Z,4.70
2023-01-09T18:36:45.907Z,4.90
2023-01-09T18:39:12.893Z,6.50
2023-01-09T18:41:39.859Z,4.90
2023-01-09T18:44:06.733Z,4.90
2023-01-09T18:46:33.549Z,4.90
2023-01-09T18:49:01.789Z,4.90
2023-01-09T18:51:28.853Z,4.90
2023-01-09T18:53:55.948Z,4.90
2023-01-09T18:56:23.367Z,4.90
2023-01-09T18:58:50.455Z,7.40
2023-01-09T19:01:17.559Z,4.90
2023-01-09T19:03:45.217Z,4.80
2023-01-09T19:06:12.179Z,4.80
2023-01-09T19:08:39.002Z,4.80
2023-01-09T19:11:05.928Z,4.80
2023-01-09T19:13:34.321Z,4.80
2023-01-09T19:16:01.341Z,4.80
2023-01-09T19:18:28.429Z,7.10
2023-01-09T19:20:55.437Z,4.30
2023-01-09T19:23:24.724Z,5.90
2023-01-09T19:25:52.169Z,4.80
2023-01-09T19:28:19.843Z,4.80
2023-01-09T19:30:46.841Z,4.80
2023-01-09T19:33:13.646Z,4.80
2023-01-09T19:35:40.528Z,6.90
2023-01-09T19:38:07.390Z,4.80
2023-01-09T19:40:35.542Z,4.80
2023-01-09T19:43:02.347Z,4.80
2023-01-09T19:45:29.276Z,4.80
2023-01-09T19:47:56.434Z,6.90
2023-01-09T19:50:23.258Z,4.80
2023-01-09T19:52:51.019Z,4.90
2023-01-09T19:55:18.017Z,7.50
2023-01-09T19:57:45.198Z,7.40
2023-01-09T20:00:15.171Z,4.60
2023-01-09T20:02:42.503Z,4.80
2023-01-09T20:05:10.185Z,6.90
2023-01-09T20:07:37.085Z,4.80
2023-01-09T20:10:04.307Z,4.80
2023-01-09T20:12:32.160Z,4.80
2023-01-09T20:14:59.140Z,4.80
2023-01-09T20:17:26.014Z,7.10
2023-01-09T20:19:52.782Z,4.80
2023-01-09T20:22:19.682Z,4.80
2023-01-09T20:24:46.795Z,4.80
2023-01-09T20:27:13.554Z,4.80
2023-01-09T20:29:40.402Z,4.70
2023-01-09T20:32:07.807Z,4.70
2023-01-09T20:34:34.621Z,4.70
2023-01-09T20:37:01.563Z,4.70
2023-01-09T20:39:28.536Z,7.00
2023-01-09T20:41:55.382Z,5.80
2023-01-09T20:44:22.312Z,4.70
2023-01-09T20:46:49.419Z,4.70
2023-01-09T20:49:18.062Z,4.70
2023-01-09T20:51:49.524Z,4.70
2023-01-09T20:54:17.032Z,4.70
2023-01-09T20:56:43.843Z,4.70
2023-01-09T20:59:12.215Z,4.70
2023-01-09T21:01:40.236Z,5.60
2023-01-09T21:04:08.725Z,4.60
2023-01-09T21:06:36.053Z,4.60
2023-01-09T21:09:04.064Z,4.60
2023-01-09T21:11:30.907Z,4.80
2023-01-09T21:13:57.752Z,4.60
2023-01-09T21:16:25.056Z,4.60
2023-01-09T21:18:52.254Z,4.60
2023-01-09T21:21:21.988Z,4.60
2023-01-09T21:23:51.920Z,7.10
2023-01-09T21:26:22.243Z,4.60
2023-01-09T21:28:50.009Z,4.60
2023-01-09T21:31:18.214Z,4.60
2023-01-09T21:33:45.175Z,4.50
2023-01-09T21:36:12.184Z,4.60
2023-01-09T21:38:39.193Z,4.60
2023-01-09T21:41:24.773Z,6.90
2023-01-09T21:44:10.096Z,4.50
2023-01-09T21:46:51.859Z,4.50
2023-01-09T21:49:23.366Z,4.50
2023-01-09T21:51:50.243Z,4.50
2023-01-09T21:54:17.231Z,4.50
2023-01-09T21:56:44.117Z,4.50
2023-01-09T21:59:11.309Z,4.90
2023-01-09T22:01:38.143Z,4.50
2023-01-09T22:04:05.001Z,4.60
2023-01-09T22:06:31.925Z,5.90
2023-01-09T22:08:58.777Z,4.50
2023-01-09T22:11:25.625Z,4.50
2023-01-09T22:13:52.451Z,4.50
2023-01-09T22:16:19.446Z,4.50
2023-01-09T22:18:46.289Z,4.60
2023-01-09T22:21:13.204Z,4.60
2023-01-09T22:23:40.028Z,6.90
2023-01-09T22:26:10.884Z,4.50
2023-01-09T22:28:37.692Z,4.60
2023-01-09T22:31:11.603Z,4.60
2023-01-09T22:33:38.381Z,4.60
2023-01-09T22:36:09.254Z,4.60
2023-01-09T22:38:36.142Z,4.60
2023-01-09T22:41:03.720Z,4.60
2023-01-09T22:43:30.623Z,4.80
2023-01-09T22:46:01.693Z,4.70
2023-01-09T22:48:31.582Z,4.70
2023-01-09T22:51:18.314Z,4.70
2023-01-09T22:53:45.412Z,4.70
2023-01-09T22:56:13.947Z,4.70
2023-01-09T22:58:40.894Z,4.70
2023-01-09T23:01:09.526Z,4.70
2023-01-09T23:03:36.308Z,4.70
2023-01-09T23:06:07.881Z,4.70
2023-01-09T23:08:34.980Z,4.70
2023-01-09T23:11:02.033Z,7.80
2023-01-09T23:13:28.831Z,4.80
2023-01-09T23:15:55.796Z,4.80
2023-01-09T23:18:22.727Z,4.80
2023-01-09T23:20:56.305Z,4.80
2023-01-09T23:23:24.419Z,4.80
2023-01-09T23:25:52.013Z,4.90
2023-01-09T23:28:19.099Z,4.90
2023-01-09T23:30:46.136Z,6.30
2023-01-09T23:33:13.107Z,4.90
2023-01-09T23:35:40.078Z,4.90
2023-01-09T23:38:07.493Z,4.90
2023-01-09T23:40:38.274Z,4.70
2023-01-09T23:43:10.845Z,6.20
2023-01-09T23:45:42.080Z,6.90
2023-01-09T23:48:10.042Z,7.10
2023-01-09T23:50:36.976Z,4.80
2023-01-09T23:53:03.991Z,5.60
2023-01-09T23:55:31.013Z,4.80
2023-01-09T23:57:57.828Z,4.80
